createdAt,value
2022-08-27T00:01:50.622Z,86.19
2022-08-27T00:04:19.871Z,85.97
2022-08-27T00:06:47.797Z,87.35
2022-08-27T00:09:15.750Z,87.48
2022-08-27T00:11:44.988Z,87.65
2022-08-27T00:14:12.976Z,87.83
2022-08-27T00:16:40.753Z,86.06
2022-08-27T00:19:08.598Z,86.28
2022-08-27T00:21:37.872Z,88.10
2022-08-27T00:24:06.151Z,87.75
2022-08-27T00:26:33.921Z,89.48
2022-08-27T00:29:03.008Z,88.82
2022-08-27T00:31:30.830Z,88.41
2022-08-27T00:33:59.204Z,89.15
2022-08-27T00:36:26.938Z,90.13
2022-08-27T00:38:56.175Z,89.62
2022-08-27T00:41:24.379Z,89.86
2022-08-27T00:43:54.302Z,88.76
2022-08-27T00:46:26.113Z,88.85
2022-08-27T00:48:56.316Z,88.98
2022-08-27T00:51:24.971Z,88.73
2022-08-27T00:53:53.371Z,90.30
2022-08-27T00:56:25.321Z,90.12
2022-08-27T00:58:54.718Z,87.07
2022-08-27T01:01:25.527Z,88.26
2022-08-27T01:03:56.804Z,87.99
2022-08-27T01:06:26.350Z,88.09
2022-08-27T01:08:57.180Z,89.13
2022-08-27T01:11:26.753Z,90.42
2022-08-27T01:13:59.585Z,88.57
2022-08-27T01:16:32.373Z,87.39
2022-08-27T01:19:01.147Z,90.05
2022-08-27T01:21:33.959Z,90.02
2022-08-27T01:24:23.340Z,90.82
2022-08-27T01:26:51.411Z,90.27
2022-08-27T01:29:19.540Z,90.26
2022-08-27T01:31:48.115Z,90.15
2022-08-27T01:34:16.152Z,90.66
2022-08-27T01:36:43.948Z,91.52
2022-08-27T01:39:11.756Z,91.61
2022-08-27T01:41:42.033Z,88.03
2022-08-27T01:44:09.822Z,91.06
2022-08-27T01:46:37.676Z,90.38
2022-08-27T01:49:05.519Z,90.55
2022-08-27T01:51:33.267Z,90.41
2022-08-27T01:54:01.155Z,91.03
2022-08-27T01:56:28.934Z,88.30
2022-08-27T01:58:58.039Z,89.01
2022-08-27T02:01:25.871Z,88.61
2022-08-27T02:03:53.709Z,88.12
2022-08-27T02:06:21.495Z,87.08
2022-08-27T02:08:49.292Z,89.93
2022-08-27T02:11:18.172Z,87.63
2022-08-27T02:13:46.031Z,87.64
2022-08-27T02:16:15.605Z,89.98
2022-08-27T02:18:43.666Z,89.60
2022-08-27T02:21:12.854Z,90.92
2022-08-27T02:23:42.036Z,89.57
2022-08-27T02:26:09.871Z,90.51
2022-08-27T02:28:38.312Z,89.98
2022-08-27T02:31:07.466Z,90.04
2022-08-27T02:33:36.650Z,88.38
2022-08-27T02:36:04.521Z,89.54
2022-08-27T02:38:34.150Z,89.07
2022-08-27T02:41:01.933Z,88.00
2022-08-27T02:43:31.459Z,87.47
2022-08-27T02:45:59.346Z,88.01
2022-08-27T02:48:27.430Z,89.36
2022-08-27T02:50:56.516Z,88.24
2022-08-27T02:53:24.407Z,90.51
2022-08-27T02:55:52.915Z,90.40
2022-08-27T02:58:20.700Z,91.43
2022-08-27T03:00:48.613Z,90.47
2022-08-27T03:03:16.467Z,89.92
2022-08-27T03:05:44.331Z,91.52
2022-08-27T03:08:13.470Z,90.01
2022-08-27T03:10:41.868Z,91.07
2022-08-27T03:13:09.724Z,90.31
2022-08-27T03:15:37.479Z,90.68
2022-08-27T03:18:28.327Z,90.80
2022-08-27T03:20:57.451Z,89.08
2022-08-27T03:23:28.182Z,88.38
2022-08-27T03:25:57.766Z,88.28
2022-08-27T03:28:27.328Z,88.70
2022-08-27T03:30:58.471Z,88.66
2022-08-27T03:33:27.166Z,89.31
2022-08-27T03:35:55.071Z,90.37
2022-08-27T03:38:23.319Z,89.46
2022-08-27T03:40:52.564Z,90.22
2022-08-27T03:43:22.087Z,89.91
2022-08-27T03:46:01.633Z,92.34
2022-08-27T03:48:30.899Z,90.48
2022-08-27T03:50:58.638Z,91.14
2022-08-27T03:53:26.521Z,89.76
2022-08-27T03:55:55.606Z,90.71
2022-08-27T03:58:23.362Z,90.41
2022-08-27T04:00:51.138Z,90.87
2022-08-27T04:03:18.891Z,91.50
2022-08-27T04:05:46.663Z,90.60
2022-08-27T04:08:14.451Z,91.92
2022-08-27T04:10:42.548Z,93.09
2022-08-27T04:13:11.649Z,91.07
2022-08-27T04:15:43.901Z,89.55
2022-08-27T04:18:12.515Z,89.17
2022-08-27T04:20:40.355Z,90.51
2022-08-27T04:23:09.331Z,88.55
2022-08-27T04:25:39.954Z,91.28
2022-08-27T04:28:08.274Z,90.71
2022-08-27T04:30:41.160Z,92.16
2022-08-27T04:33:08.927Z,90.64
2022-08-27T04:35:36.663Z,90.06
2022-08-27T04:38:04.776Z,91.00
2022-08-27T04:40:46.533Z,90.37
2022-08-27T04:43:17.640Z,91.17
2022-08-27T04:45:48.567Z,90.76
2022-08-27T04:48:18.620Z,89.01
2022-08-27T04:50:48.158Z,89.02
2022-08-27T04:53:17.655Z,89.10
2022-08-27T04:55:46.583Z,89.20
2022-08-27T04:58:14.650Z,89.46
2022-08-27T05:00:43.504Z,89.21
2022-08-27T05:03:13.295Z,88.79
2022-08-27T05:05:42.898Z,88.21
2022-08-27T05:08:13.079Z,88.43
2022-08-27T05:10:42.365Z,91.16
2022-08-27T05:13:12.014Z,90.27
2022-08-27T05:15:40.281Z,89.53
2022-08-27T05:18:09.755Z,90.27
2022-08-27T05:20:45.283Z,88.92
2022-08-27T05:23:13.333Z,88.83
2022-08-27T05:25:45.428Z,88.87
2022-08-27T05:28:14.055Z,88.71
2022-08-27T05:30:43.632Z,89.29
2022-08-27T05:33:11.874Z,90.75
2022-08-27T05:35:43.208Z,88.94
2022-08-27T05:38:11.413Z,91.85
2022-08-27T05:40:40.435Z,90.36
2022-08-27T05:43:08.748Z,90.14
2022-08-27T05:45:41.523Z,89.42
2022-08-27T05:48:11.794Z,90.19
2022-08-27T05:50:40.712Z,91.68
2022-08-27T05:53:11.895Z,90.11
2022-08-27T05:55:42.096Z,91.79
2022-08-27T05:58:34.264Z,93.37
2022-08-27T06:01:09.947Z,92.06
2022-08-27T06:03:42.285Z,91.51
2022-08-27T06:06:12.029Z,91.18
2022-08-27T06:08:44.170Z,91.94
2022-08-27T06:11:12.216Z,92.33
2022-08-27T06:13:39.987Z,92.33
2022-08-27T06:16:15.886Z,90.26
2022-08-27T06:18:47.473Z,91.85
2022-08-27T06:21:17.243Z,92.56
2022-08-27T06:23:48.602Z,89.91
2022-08-27T06:26:18.828Z,88.24
2022-08-27T06:28:48.935Z,89.18
2022-08-27T06:31:18.856Z,90.80
2022-08-27T06:33:48.099Z,90.54
2022-08-27T06:36:18.401Z,90.83
2022-08-27T06:38:48.663Z,91.63
2022-08-27T06:41:23.263Z,88.51
2022-08-27T06:43:52.524Z,91.71
2022-08-27T06:46:23.138Z,90.68
2022-08-27T06:48:52.799Z,89.89
2022-08-27T06:51:24.516Z,91.53
2022-08-27T06:53:55.071Z,90.92
2022-08-27T06:56:24.049Z,89.33
2022-08-27T06:58:55.423Z,89.40
2022-08-27T07:01:27.206Z,89.01
2022-08-27T07:03:56.283Z,88.83
2022-08-27T07:06:26.403Z,88.98
2022-08-27T07:08:56.925Z,89.41
2022-08-27T07:11:28.922Z,89.44
2022-08-27T07:13:57.283Z,88.88
2022-08-27T07:16:27.258Z,88.97
2022-08-27T07:19:00.964Z,88.45
2022-08-27T07:21:33.002Z,90.76
2022-08-27T07:24:05.039Z,87.59
2022-08-27T07:26:35.924Z,87.53
2022-08-27T07:29:04.482Z,87.45
2022-08-27T07:31:35.660Z,90.45
2022-08-27T07:34:05.179Z,91.18
2022-08-27T07:36:34.208Z,91.36
2022-08-27T07:39:04.790Z,91.47
2022-08-27T07:41:54.219Z,92.04
2022-08-27T07:44:33.026Z,91.82
2022-08-27T07:47:03.216Z,92.23
2022-08-27T07:49:31.766Z,93.23
2022-08-27T07:51:59.642Z,91.58
2022-08-27T07:54:28.794Z,90.93
2022-08-27T07:56:57.008Z,90.85
2022-08-27T07:59:25.220Z,91.99
2022-08-27T08:01:54.739Z,89.14
2022-08-27T08:04:22.938Z,89.52
2022-08-27T08:06:51.494Z,91.39
2022-08-27T08:09:19.475Z,91.29
2022-08-27T08:11:48.709Z,91.11
2022-08-27T08:14:16.556Z,92.54
2022-08-27T08:16:44.461Z,91.60
2022-08-27T08:19:12.519Z,92.05
2022-08-27T08:21:40.291Z,90.68
2022-08-27T08:24:08.334Z,90.57
2022-08-27T08:26:36.176Z,90.91
2022-08-27T08:29:05.755Z,91.50
2022-08-27T08:31:33.559Z,90.72
2022-08-27T08:34:04.023Z,91.11
2022-08-27T08:36:31.772Z,90.69
2022-08-27T08:38:59.658Z,90.76
2022-08-27T08:41:38.051Z,91.58
2022-08-27T08:44:12.914Z,91.31
2022-08-27T08:46:42.633Z,90.28
2022-08-27T08:49:17.240Z,91.14
2022-08-27T08:51:47.276Z,89.08
2022-08-27T08:54:17.891Z,90.73
2022-08-27T08:56:55.146Z,88.89
2022-08-27T08:59:29.352Z,90.17
2022-08-27T09:01:58.068Z,89.49
2022-08-27T09:04:27.468Z,88.99
2022-08-27T09:06:59.591Z,88.64
2022-08-27T09:09:32.807Z,90.23
2022-08-27T09:12:02.246Z,91.62
2022-08-27T09:14:37.457Z,89.64
2022-08-27T09:17:10.756Z,91.02
2022-08-27T09:19:39.511Z,91.03
2022-08-27T09:22:17.316Z,88.95
2022-08-27T09:24:52.935Z,90.16
2022-08-27T09:27:21.922Z,90.67
2022-08-27T09:29:53.115Z,90.61
2022-08-27T09:32:25.951Z,90.28
2022-08-27T09:34:58.461Z,89.84
2022-08-27T09:37:34.326Z,91.96
2022-08-27T09:40:13.693Z,91.72
2022-08-27T09:42:53.293Z,90.86
2022-08-27T09:45:25.780Z,91.27
2022-08-27T09:47:55.707Z,92.32
2022-08-27T09:50:25.215Z,89.60
2022-08-27T09:52:55.717Z,90.88
2022-08-27T09:55:32.058Z,91.24
2022-08-27T09:58:00.596Z,91.40
2022-08-27T10:00:36.792Z,90.47
2022-08-27T10:03:05.414Z,91.13
2022-08-27T10:05:38.123Z,90.45
2022-08-27T10:08:11.937Z,90.83
2022-08-27T10:10:49.695Z,90.11
2022-08-27T10:13:21.662Z,92.91
2022-08-27T10:16:01.696Z,91.22
2022-08-27T10:18:38.147Z,89.94
2022-08-27T10:21:11.365Z,90.84
2022-08-27T10:23:46.488Z,92.61
2022-08-27T10:26:19.348Z,92.62
2022-08-27T10:29:03.930Z,91.17
2022-08-27T10:34:16.738Z,91.91
2022-08-27T10:36:52.222Z,91.05
2022-08-27T10:39:25.519Z,88.76
2022-08-27T10:42:01.231Z,89.33
2022-08-27T10:47:15.430Z,90.17
2022-08-27T10:49:48.147Z,89.80
2022-08-27T10:52:19.351Z,92.07
2022-08-27T10:54:53.427Z,90.07
2022-08-27T10:57:44.964Z,91.16
2022-08-27T11:00:15.967Z,90.30
2022-08-27T11:02:48.116Z,89.92
2022-08-27T11:05:19.254Z,90.15
2022-08-27T11:07:49.883Z,92.40
2022-08-27T11:10:25.312Z,90.55
2022-08-27T11:12:55.652Z,91.92
2022-08-27T11:15:26.251Z,92.14
2022-08-27T11:17:59.831Z,91.17
2022-08-27T11:20:30.887Z,91.48
2022-08-27T11:23:03.698Z,90.73
2022-08-27T11:25:46.575Z,91.46
2022-08-27T11:28:15.019Z,90.50
2022-08-27T11:30:51.308Z,91.93
2022-08-27T11:33:25.717Z,91.10
2022-08-27T11:36:20.331Z,90.64
2022-08-27T11:38:55.040Z,89.19
2022-08-27T11:41:55.484Z,90.52
2022-08-27T11:44:24.960Z,90.30
2022-08-27T11:46:57.841Z,90.60
2022-08-27T11:49:29.688Z,91.96
2022-08-27T11:52:00.288Z,89.79
2022-08-27T11:54:31.253Z,91.38
2022-08-27T11:56:59.164Z,89.96
2022-08-27T11:59:33.293Z,90.59
2022-08-27T12:02:14.208Z,89.76
2022-08-27T12:04:43.767Z,88.81
2022-08-27T12:07:27.327Z,90.42
2022-08-27T12:10:05.621Z,89.91
2022-08-27T12:12:47.887Z,89.27
2022-08-27T12:15:19.799Z,89.97
2022-08-27T12:17:54.676Z,90.15
2022-08-27T12:20:27.405Z,90.80
2022-08-27T12:23:24.855Z,89.33
2022-08-27T12:25:57.846Z,89.50
2022-08-27T12:28:26.923Z,89.23
2022-08-27T12:30:56.186Z,88.05
2022-08-27T12:33:31.325Z,89.54
2022-08-27T12:36:07.230Z,88.10
2022-08-27T12:38:43.786Z,88.17
2022-08-27T12:41:25.762Z,88.50
2022-08-27T12:44:04.617Z,88.19
2022-08-27T12:46:32.597Z,88.53
2022-08-27T12:49:38.643Z,89.00
2022-08-27T12:51:53.437Z,89.10
2022-08-27T12:54:30.528Z,87.95
2022-08-27T12:57:02.125Z,87.95
2022-08-27T12:59:52.584Z,87.04
2022-08-27T13:02:31.972Z,86.93
2022-08-27T13:05:04.319Z,86.85
2022-08-27T13:07:42.755Z,87.81
2022-08-27T13:10:14.161Z,86.97
2022-08-27T13:12:43.000Z,87.12
2022-08-27T13:15:14.451Z,86.76
2022-08-27T13:17:45.355Z,85.66
2022-08-27T13:20:16.664Z,86.04
2022-08-27T13:22:47.024Z,85.17
2022-08-27T13:25:25.079Z,85.66
2022-08-27T13:27:55.080Z,84.94
2022-08-27T13:30:35.783Z,84.87
2022-08-27T13:33:05.541Z,83.34
2022-08-27T13:35:33.663Z,82.79
2022-08-27T13:38:03.761Z,82.30
2022-08-27T13:40:34.477Z,82.99
2022-08-27T13:43:08.622Z,82.94
2022-08-27T13:45:38.458Z,82.00
2022-08-27T13:48:07.184Z,81.92
2022-08-27T13:50:36.169Z,82.51
2022-08-27T13:53:25.436Z,82.70
2022-08-27T13:55:54.535Z,82.29
2022-08-27T13:58:26.435Z,80.57
2022-08-27T14:00:54.829Z,80.35
2022-08-27T14:03:30.479Z,80.08
2022-08-27T14:05:58.385Z,80.08
2022-08-27T14:08:32.123Z,79.78
2022-08-27T14:11:03.957Z,79.28
2022-08-27T14:13:39.278Z,78.74
2022-08-27T14:16:15.890Z,78.79
2022-08-27T14:18:59.204Z,79.00
2022-08-27T14:21:27.633Z,77.70
2022-08-27T14:23:56.879Z,77.73
2022-08-27T14:26:27.516Z,77.11
2022-08-27T14:28:55.554Z,77.32
2022-08-27T14:31:23.634Z,77.33
2022-08-27T14:33:52.359Z,77.23
2022-08-27T14:36:20.166Z,76.93
2022-08-27T14:38:49.856Z,77.04
2022-08-27T14:41:21.525Z,77.00
2022-08-27T14:43:49.890Z,76.71
2022-08-27T14:46:22.457Z,76.87
2022-08-27T14:48:51.921Z,76.30
2022-08-27T14:51:24.132Z,75.76
2022-08-27T14:53:52.644Z,76.39
2022-08-27T14:56:22.761Z,75.94
2022-08-27T14:58:50.924Z,75.60
2022-08-27T15:01:19.135Z,75.67
2022-08-27T15:03:48.992Z,75.64
2022-08-27T15:06:17.806Z,75.35
2022-08-27T15:08:46.016Z,75.75
2022-08-27T15:11:17.175Z,75.42
2022-08-27T15:13:46.874Z,74.97
2022-08-27T15:16:16.778Z,74.97
2022-08-27T15:18:44.778Z,75.15
2022-08-27T15:21:28.732Z,75.03
2022-08-27T15:23:59.474Z,74.35
2022-08-27T15:26:27.412Z,74.05
2022-08-27T15:28:56.608Z,74.77
2022-08-27T15:31:24.847Z,74.86
2022-08-27T15:33:52.651Z,75.17
2022-08-27T15:36:20.463Z,75.28
2022-08-27T15:38:48.225Z,74.67
2022-08-27T15:41:16.270Z,75.27
2022-08-27T15:43:44.219Z,74.61
2022-08-27T15:46:14.014Z,74.75
2022-08-27T15:48:41.947Z,74.64
2022-08-27T15:51:13.520Z,74.65
2022-08-27T15:53:42.440Z,74.74
2022-08-27T15:56:10.489Z,74.86
2022-08-27T15:58:38.657Z,74.47
2022-08-27T16:01:10.461Z,74.44
2022-08-27T16:03:42.273Z,73.83
2022-08-27T16:06:10.454Z,74.18
2022-08-27T16:08:42.206Z,73.26
2022-08-27T16:11:10.277Z,72.98
2022-08-27T16:13:38.070Z,72.92
2022-08-27T16:16:07.576Z,73.49
2022-08-27T16:18:36.503Z,73.01
2022-08-27T16:21:06.512Z,73.34
2022-08-27T16:23:34.881Z,73.74
2022-08-27T16:26:04.568Z,73.27
2022-08-27T16:28:32.281Z,73.47
2022-08-27T16:31:00.156Z,72.44
2022-08-27T16:33:30.347Z,72.28
2022-08-27T16:35:58.103Z,71.86
2022-08-27T16:38:27.163Z,72.10
2022-08-27T16:40:56.660Z,72.11
2022-08-27T16:43:26.294Z,72.35
2022-08-27T16:45:55.303Z,72.19
2022-08-27T16:48:44.343Z,71.91
2022-08-27T16:51:19.686Z,72.54
2022-08-27T16:53:49.824Z,72.82
2022-08-27T16:56:18.028Z,72.31
2022-08-27T16:58:48.988Z,72.59
2022-08-27T17:01:19.323Z,72.15
2022-08-27T17:04:08.131Z,72.75
2022-08-27T17:06:39.768Z,73.01
2022-08-27T17:09:10.241Z,72.27
2022-08-27T17:11:41.790Z,71.29
2022-08-27T17:14:10.771Z,72.20
2022-08-27T17:16:38.789Z,71.89
2022-08-27T17:19:07.260Z,72.04
2022-08-27T17:21:36.964Z,71.50
2022-08-27T17:24:05.632Z,71.85
2022-08-27T17:26:41.987Z,72.15
2022-08-27T17:29:09.749Z,72.51
2022-08-27T17:31:40.143Z,72.04
2022-08-27T17:34:08.326Z,71.64
2022-08-27T17:36:36.064Z,72.19
2022-08-27T17:39:04.720Z,72.09
2022-08-27T17:41:37.837Z,72.15
2022-08-27T17:44:10.758Z,71.53
2022-08-27T17:46:38.549Z,71.70
2022-08-27T17:49:06.295Z,71.78
2022-08-27T17:51:35.885Z,72.02
2022-08-27T17:54:25.089Z,72.94
2022-08-27T17:56:52.860Z,72.19
2022-08-27T17:59:21.910Z,72.23
2022-08-27T18:01:49.764Z,71.50
2022-08-27T18:04:17.827Z,71.04
2022-08-27T18:06:45.632Z,71.63
2022-08-27T18:09:15.757Z,71.76
2022-08-27T18:11:44.383Z,71.39
2022-08-27T18:14:12.653Z,71.57
2022-08-27T18:16:47.262Z,72.00
2022-08-27T18:19:15.052Z,71.80
2022-08-27T18:21:46.441Z,71.25
2022-08-27T18:24:15.611Z,71.60
2022-08-27T18:26:44.695Z,71.56
2022-08-27T18:29:14.297Z,71.40
2022-08-27T18:31:42.298Z,72.16
2022-08-27T18:34:11.393Z,71.57
2022-08-27T18:36:39.119Z,72.13
2022-08-27T18:39:06.821Z,71.22
2022-08-27T18:41:34.608Z,71.92
2022-08-27T18:44:11.507Z,71.57
2022-08-27T18:46:45.995Z,70.88
2022-08-27T18:49:15.164Z,71.52
2022-08-27T18:51:43.931Z,72.05
2022-08-27T18:54:12.107Z,71.95
2022-08-27T18:56:39.832Z,72.07
2022-08-27T18:59:07.549Z,72.43
2022-08-27T19:01:35.368Z,73.21
2022-08-27T19:04:05.644Z,71.65
2022-08-27T19:06:34.999Z,71.98
2022-08-27T19:09:07.464Z,72.03
2022-08-27T19:11:35.172Z,72.18
2022-08-27T19:14:05.417Z,72.03
2022-08-27T19:16:40.927Z,71.63
2022-08-27T19:19:08.688Z,72.32
2022-08-27T19:21:38.135Z,71.89
2022-08-27T19:24:06.643Z,72.12
2022-08-27T19:26:34.713Z,72.20
2022-08-27T19:29:06.405Z,71.31
2022-08-27T19:31:36.361Z,72.38
2022-08-27T19:34:05.713Z,72.95
2022-08-27T19:36:42.038Z,73.08
2022-08-27T19:39:12.115Z,72.81
2022-08-27T19:41:39.982Z,73.59
2022-08-27T19:44:07.795Z,73.26
2022-08-27T19:46:36.494Z,73.04
2022-08-27T19:49:07.652Z,73.01
2022-08-27T19:51:36.796Z,72.26
2022-08-27T19:54:09.868Z,73.22
2022-08-27T19:56:38.215Z,73.73
2022-08-27T19:59:20.540Z,73.53
2022-08-27T20:01:49.559Z,72.62
2022-08-27T20:04:17.341Z,72.76
2022-08-27T20:06:46.581Z,72.84
2022-08-27T20:09:16.041Z,72.76
2022-08-27T20:11:45.744Z,72.40
2022-08-27T20:14:13.674Z,73.13
2022-08-27T20:16:41.506Z,73.40
2022-08-27T20:19:10.122Z,73.12
2022-08-27T20:21:38.277Z,72.88
2022-08-27T20:24:07.555Z,73.01
2022-08-27T20:26:35.709Z,73.40
2022-08-27T20:29:05.197Z,73.32
2022-08-27T20:31:32.940Z,73.50
2022-08-27T20:34:00.700Z,73.14
2022-08-27T20:36:29.904Z,74.00
2022-08-27T20:38:57.632Z,73.87
2022-08-27T20:41:27.097Z,73.11
2022-08-27T20:43:55.039Z,73.23
2022-08-27T20:46:25.576Z,73.71
2022-08-27T20:48:54.199Z,73.07
2022-08-27T20:51:22.290Z,73.59
2022-08-27T20:53:50.015Z,73.51
2022-08-27T20:56:17.785Z,72.62
2022-08-27T20:59:04.953Z,72.65
2022-08-27T21:01:32.745Z,73.20
2022-08-27T21:04:00.512Z,73.40
2022-08-27T21:06:33.330Z,72.76
2022-08-27T21:09:01.205Z,73.11
2022-08-27T21:11:29.544Z,72.95
2022-08-27T21:13:58.620Z,73.86
2022-08-27T21:16:26.590Z,73.01
2022-08-27T21:18:55.457Z,73.84
2022-08-27T21:21:23.482Z,73.34
2022-08-27T21:23:51.192Z,73.52
2022-08-27T21:26:20.028Z,73.18
2022-08-27T21:28:47.744Z,73.68
2022-08-27T21:31:16.868Z,73.78
2022-08-27T21:33:44.591Z,74.25
2022-08-27T21:36:12.600Z,73.95
2022-08-27T21:38:40.440Z,74.31
2022-08-27T21:41:08.496Z,73.16
2022-08-27T21:43:36.316Z,73.23
2022-08-27T21:46:04.393Z,73.58
2022-08-27T21:48:36.313Z,73.81
2022-08-27T21:51:08.633Z,73.06
2022-08-27T21:53:36.742Z,73.29
2022-08-27T21:56:05.502Z,73.13
2022-08-27T21:58:33.438Z,73.15
2022-08-27T22:01:05.102Z,73.77
2022-08-27T22:03:33.889Z,74.09
2022-08-27T22:06:07.888Z,73.43
2022-08-27T22:08:35.697Z,73.35
2022-08-27T22:11:07.528Z,74.06
2022-08-27T22:13:35.242Z,73.29
2022-08-27T22:16:04.414Z,72.93
2022-08-27T22:18:32.353Z,73.96
2022-08-27T22:21:00.485Z,73.49
2022-08-27T22:23:31.716Z,72.88
2022-08-27T22:26:00.733Z,73.62
2022-08-27T22:28:29.763Z,73.87
2022-08-27T22:30:57.630Z,73.37
2022-08-27T22:33:25.539Z,73.64
2022-08-27T22:35:53.364Z,73.94
2022-08-27T22:38:21.062Z,74.12
2022-08-27T22:40:51.049Z,74.14
2022-08-27T22:43:19.596Z,74.59
2022-08-27T22:45:47.296Z,73.82
2022-08-27T22:48:15.011Z,73.70
2022-08-27T22:50:42.781Z,74.10
2022-08-27T22:53:10.728Z,74.17
2022-08-27T22:55:38.561Z,73.63
2022-08-27T22:58:07.613Z,73.28
2022-08-27T23:00:40.777Z,73.70
2022-08-27T23:03:10.088Z,73.84
2022-08-27T23:05:40.264Z,73.44
2022-08-27T23:08:11.490Z,73.73
2022-08-27T23:10:39.764Z,74.21
2022-08-27T23:13:09.630Z,73.89
2022-08-27T23:15:38.430Z,74.49
2022-08-27T23:18:06.565Z,74.46
2022-08-27T23:20:34.402Z,74.51
2022-08-27T23:23:03.084Z,73.62
2022-08-27T23:25:48.738Z,74.53
2022-08-27T23:28:18.083Z,75.31
2022-08-27T23:30:46.615Z,75.38
2022-08-27T23:33:14.819Z,74.98
2022-08-27T23:35:47.523Z,74.89
2022-08-27T23:38:16.248Z,75.86
2022-08-27T23:40:44.038Z,75.14
2022-08-27T23:43:12.092Z,74.87
2022-08-27T23:45:41.165Z,76.38
2022-08-27T23:48:09.167Z,75.27
2022-08-27T23:50:37.502Z,77.43
2022-08-27T23:53:06.253Z,76.01
2022-08-27T23:55:34.596Z,76.51
2022-08-27T23:58:03.024Z,75.97
